Clio, Alabama
Current Conditions -  °F | °C
As of 4:53 AM on Friday 24 Oct 2014 (Local Time) from KHEY Reporting Station
Clear Clear  
Wind Chill: 51°   Ceiling: Unl
Heat Index: 51°   Visibility: 9mi
Dew Point: 47°   Wind: 3mph
Humidity: 86%   Direction: 350°N
Pressure: 30.04"   Gusts: NA
Location:  31.71°N, 85.61°W
Report Text: KHEY 240953Z AUTO 35003KT 9SM CLR 11/08 A3004 RMK AO2 SLP060 T01060083
Loading
Personal Weather Stations






























Interactive Weather Map
Tropical Storm Tracking
New forecast layout! Learn more

10-Day Weather Forecast

Advertisements
Track Severe Weather on mobile